메인 페이지
METAR-TAF:

METAR-TAF

공항 :

리우데자네이루 갈레앙 국제공항, 리우데자네이루, 브라질

위도: 22-49S, 경도: 043-15W, 고도: 6m

현재 날씨관측

예보는 1 시간 0분 전, 00:00시(UTC)에 발표되었습니다.
3kt동북동풍과 동남동풍을 오가는
온도 27°C
습도 84%
기압 1008 hPa
시정 10km 이상
1500m 미만 상공 구름 및 적란운 없음

METAR: SBGL 030000Z 10003KT 060V120 CAVOK 27/24 Q1008

시각: 22:00 (01:00 UTC)

예보

예보는 4 시간 0분 전, 21:00시(UTC)에 발표되었습니다.
예보 대상 시간: 03일 00시부터 04일 06시까지 (UTC)
북북서5kt
시정 10km 이상
고도 2500ft 상공 구름 보통
확률 30%
03일 08시부터 03일 11시까지 (UTC)
시정: 4000m
고도 600ft 상공 구름 많음
박무
전환 중
03일 12시부터 03일 14시까지 (UTC)
북서10kt
고도 2000ft 상공 구름 보통
고도 3000ft 상공 구름 조금, 타워링 적운.
전환 중
03일 18시부터 03일 20시까지 (UTC)
남서15kt
확률 40%
03일 21시부터 03일 24시까지 (UTC)
시정: 5000m
고도 1500ft 상공 구름 보통
고도 3000ft 상공 구름 조금, 적란운.
뇌우, 비
전환 중
04일 00시부터 04일 02시까지 (UTC)
북서5kt
시정: 5000m
고도 1500ft 상공 구름 많음

TAF: SBGL 022100Z 0300/0406 33005KT 9999 SCT025 TN24/0309Z TX30/0315Z PROB30 0308/0311 4000 BR BKN006 BECMG 0312/0314 31010KT SCT020 FEW030TCU BECMG 0318/0320 23015KT PROB40 0321/0324 5000 TSRA SCT015 FEW030CB BECMG 0400/0402 32005KT 5000 RA BKN015 RMK PGU

4,000개 이상의 공항 관측 자료 및 예보 (METAR 및 TAF 보고).

지도상에서 검색 가능한 기상관측소가 노란 점과 빨간 점으로 표시되어 있습니다.

기상관측소 명을 보려면 표시 위로 마우스를 이동하세요.

날씨 관측과 예보를 보려면 클릭하세요.

지도 변경 : 확대하려면 엑스 표시가 있는 녹색 버튼, 축소하려면 빼기 표시가 있는 녹색 버튼, 다음 페이지의 지도를 보려면 녹색 화살표를 클릭하세요.


METAR-TAF: